Portada
METAR-TAF:

METAR-TAF

Aeropuertos :

Aeropuerto de Málaga-Costa del Sol

Málaga, España

latitud: 36-40N, longitud: 004-29W, altitud: 16 m

Observación

El informe se hizo hace 19 minutos, a las 08:00 UTC
Viento 5 kt del oeste-noroeste
Temperatura 8°C
Humedad 93%
Presión 1018 hPa
Visibilidad 10 km o más
Escasas nubes a una altura de 2000 ft

METAR: LEMG 180800Z 29005KT 9999 FEW020 08/07 Q1018 NOSIG

Hora: 09:19 (08:19 UTC)

Pronóstico

El informe se hizo hace 3 horas y 19 minutos, a las 05:00 UTC
Pronóstico válido del 18 a las 06 UTC al 19 a las 06 UTC
Viento 5 kt del norte-noroeste
Visibilidad 10 km o más
Nubes dispersas a una altura de 1500 ft
Evolucionando progresivamente
del 18 a las 10 UTC al 18 a las 12 UTC
Viento 9 kt del sureste
Evolucionando progresivamente
del 19 a las 00 UTC al 19 a las 02 UTC
Viento 5 kt del noroeste

TAF: LEMG 180500Z 1806/1906 33005KT 9999 SCT015 TX15/1813Z TN09/1807Z BECMG 1810/1812 14009KT BECMG 1900/1902 32005KT

Observaciones y pronósticos meteorológicos de más de 4000 aeropuertos (mensajes METAR y TAF).

Los puntos amarillos y rojos representan las estaciones disponibles.

Ponga el ratón en el punto deseado para ver el nombre de la estación.

Haga clic para ver las observaciones y los pronósticos meteorológicos.

Para cambiar el mapa : haga clic en los botones verdes con una cruz de color negro para hacer un zoom, en el botón verde con un guión para alejar o en las flechas verdes para mapas adyacentes.


METAR-TAF: